createdAt,value
2022-09-18T00:01:52.935Z,11.62
2022-09-18T00:05:55.965Z,11.61
2022-09-18T00:09:58.888Z,11.64
2022-09-18T00:14:02.018Z,11.65
2022-09-18T00:18:07.151Z,11.66
2022-09-18T00:22:10.128Z,11.63
2022-09-18T00:26:14.442Z,11.61
2022-09-18T00:30:17.816Z,11.63
2022-09-18T00:34:22.490Z,11.63
2022-09-18T00:38:25.618Z,11.60
2022-09-18T00:42:28.860Z,11.57
2022-09-18T00:46:35.321Z,11.53
2022-09-18T00:50:39.894Z,11.50
2022-09-18T00:54:46.338Z,11.48
2022-09-18T00:58:49.519Z,11.46
2022-09-18T01:02:53.016Z,11.43
2022-09-18T01:07:07.402Z,11.42
2022-09-18T01:11:25.696Z,11.43
2022-09-18T01:15:40.038Z,11.43
2022-09-18T01:20:28.499Z,11.46
2022-09-18T01:24:46.171Z,11.47
2022-09-18T01:28:58.115Z,11.48
2022-09-18T01:33:09.260Z,11.49
2022-09-18T01:37:18.314Z,11.53
2022-09-18T01:41:24.806Z,11.55
2022-09-18T01:45:34.196Z,11.56
2022-09-18T01:49:42.598Z,11.61
2022-09-18T01:53:49.380Z,11.63
2022-09-18T01:57:56.426Z,11.66
2022-09-18T02:02:04.081Z,11.70
2022-09-18T02:06:11.165Z,11.74
2022-09-18T02:10:14.772Z,11.80
2022-09-18T02:14:21.603Z,11.83
2022-09-18T02:18:46.652Z,11.83
2022-09-18T02:22:53.088Z,11.83
2022-09-18T02:27:00.407Z,11.82
2022-09-18T02:31:03.704Z,11.83
2022-09-18T02:35:11.267Z,11.84
2022-09-18T02:39:28.822Z,11.87
2022-09-18T02:43:43.859Z,11.88
2022-09-18T02:48:00.610Z,11.89
2022-09-18T02:52:10.405Z,11.90
2022-09-18T02:56:21.669Z,11.86
2022-09-18T03:00:28.446Z,11.85
2022-09-18T03:04:32.106Z,11.81
2022-09-18T03:08:41.643Z,11.78
2022-09-18T03:12:44.948Z,11.72
2022-09-18T03:16:47.955Z,11.69
2022-09-18T03:20:51.215Z,11.66
2022-09-18T03:24:55.801Z,11.68
2022-09-18T03:28:59.242Z,11.64
2022-09-18T03:33:04.633Z,11.63
2022-09-18T03:37:08.510Z,11.62
2022-09-18T03:41:13.096Z,11.60
2022-09-18T03:45:17.058Z,11.61
2022-09-18T03:49:20.495Z,11.58
2022-09-18T03:53:27.943Z,11.57
2022-09-18T03:57:50.803Z,11.52
2022-09-18T04:02:20.487Z,11.49
2022-09-18T04:06:42.263Z,11.49
2022-09-18T04:11:06.871Z,11.46
2022-09-18T04:15:12.620Z,11.46
2022-09-18T04:19:15.634Z,11.42
2022-09-18T04:23:18.977Z,11.37
2022-09-18T04:27:22.138Z,11.35
2022-09-18T04:31:27.855Z,11.33
2022-09-18T04:35:32.576Z,11.31
2022-09-18T04:39:35.928Z,11.29
2022-09-18T04:43:40.335Z,11.26
2022-09-18T04:47:45.857Z,11.29
2022-09-18T04:51:49.832Z,11.29
2022-09-18T04:55:52.885Z,11.30
2022-09-18T04:59:57.122Z,11.31
2022-09-18T05:04:01.944Z,11.32
2022-09-18T05:08:16.267Z,11.35
2022-09-18T05:12:19.456Z,11.37
2022-09-18T05:16:22.793Z,11.38
2022-09-18T05:20:43.513Z,11.40
2022-09-18T05:24:46.723Z,11.44
2022-09-18T05:28:50.898Z,11.49
2022-09-18T05:32:59.272Z,11.55
2022-09-18T05:37:06.303Z,11.58
2022-09-18T05:41:10.656Z,11.63
2022-09-18T05:45:14.808Z,11.70
2022-09-18T05:49:18.121Z,11.76
2022-09-18T05:53:23.886Z,11.82
2022-09-18T05:57:52.459Z,11.89
2022-09-18T06:01:57.978Z,11.96
2022-09-18T06:06:19.570Z,12.01
2022-09-18T06:10:24.186Z,12.11
2022-09-18T06:14:27.422Z,12.19
2022-09-18T06:18:30.633Z,12.23
2022-09-18T06:22:36.149Z,12.24
2022-09-18T06:26:40.726Z,12.29
2022-09-18T06:30:43.924Z,12.40
2022-09-18T06:34:47.215Z,12.54
2022-09-18T06:38:51.478Z,12.58
2022-09-18T06:42:58.158Z,12.63
2022-09-18T06:47:24.623Z,12.60
2022-09-18T06:51:27.720Z,12.57
2022-09-18T06:55:43.366Z,12.59
2022-09-18T06:59:47.777Z,12.62
2022-09-18T07:03:53.738Z,12.60
2022-09-18T07:07:59.044Z,12.65
2022-09-18T07:12:05.703Z,12.69
2022-09-18T07:16:24.097Z,12.77
2022-09-18T07:20:27.621Z,12.88
2022-09-18T07:24:34.020Z,12.98
2022-09-18T07:28:37.294Z,13.07
2022-09-18T07:32:52.161Z,13.12
2022-09-18T07:37:00.823Z,13.12
2022-09-18T07:41:06.018Z,13.13
2022-09-18T07:45:10.482Z,13.18
2022-09-18T07:49:15.241Z,13.19
2022-09-18T07:53:20.284Z,13.23
2022-09-18T07:57:27.606Z,13.28
2022-09-18T08:01:56.928Z,13.33
2022-09-18T08:06:06.816Z,13.30
2022-09-18T08:10:11.998Z,13.33
2022-09-18T08:14:29.083Z,13.38
2022-09-18T08:18:51.316Z,13.44
2022-09-18T08:23:14.395Z,13.65
2022-09-18T08:27:18.738Z,13.83
2022-09-18T08:31:22.694Z,13.93
2022-09-18T08:35:29.371Z,14.05
2022-09-18T08:39:40.471Z,14.16
2022-09-18T08:44:11.493Z,14.31
2022-09-18T08:48:21.332Z,14.49
2022-09-18T08:52:28.363Z,14.59
2022-09-18T08:56:57.187Z,14.68
2022-09-18T09:01:10.206Z,14.86
2022-09-18T09:05:22.830Z,15.07
2022-09-18T09:09:37.775Z,15.15
2022-09-18T09:14:07.974Z,15.31
2022-09-18T09:18:17.917Z,15.32
2022-09-18T09:22:34.975Z,15.33
2022-09-18T09:26:38.977Z,15.29
2022-09-18T09:30:58.275Z,15.28
2022-09-18T09:35:30.174Z,15.31
2022-09-18T09:39:46.799Z,15.40
2022-09-18T09:43:58.583Z,15.40
2022-09-18T09:48:12.087Z,15.40
2022-09-18T09:52:24.230Z,15.41
2022-09-18T09:56:37.474Z,15.60
2022-09-18T10:00:47.635Z,15.69
2022-09-18T10:05:00.077Z,15.61
2022-09-18T10:09:15.328Z,15.56
2022-09-18T10:13:22.511Z,15.67
2022-09-18T10:17:27.661Z,15.75
2022-09-18T10:21:36.399Z,15.91
2022-09-18T10:25:47.678Z,16.09
2022-09-18T10:29:54.232Z,16.13
2022-09-18T10:34:32.358Z,16.12
2022-09-18T10:38:39.253Z,16.17
2022-09-18T10:42:59.908Z,16.09
2022-09-18T10:47:08.879Z,16.10
2022-09-18T10:51:20.476Z,16.06
2022-09-18T10:55:28.556Z,16.10
2022-09-18T10:59:38.031Z,16.17
2022-09-18T11:03:43.713Z,16.13
2022-09-18T11:07:55.710Z,16.09
2022-09-18T11:12:00.861Z,16.15
2022-09-18T11:16:10.089Z,16.35
2022-09-18T11:20:23.989Z,16.54
2022-09-18T11:24:46.621Z,16.55
2022-09-18T11:29:04.634Z,16.55
2022-09-18T11:33:16.935Z,16.62
2022-09-18T11:37:30.423Z,16.70
2022-09-18T11:41:37.173Z,16.72
2022-09-18T11:45:52.390Z,16.66
2022-09-18T11:50:05.597Z,16.31
2022-09-18T11:54:20.686Z,15.93
2022-09-18T11:58:28.998Z,15.73
2022-09-18T12:02:41.207Z,15.73
2022-09-18T12:06:52.276Z,15.80
2022-09-18T12:11:07.092Z,15.88
2022-09-18T12:15:17.144Z,16.02
2022-09-18T12:19:27.134Z,16.16
2022-09-18T12:23:32.214Z,16.34
2022-09-18T12:27:47.034Z,16.46
2022-09-18T12:31:59.487Z,16.46
2022-09-18T12:36:41.460Z,16.39
2022-09-18T12:41:00.775Z,16.29
2022-09-18T12:45:39.142Z,16.15
2022-09-18T12:49:59.423Z,15.88
2022-09-18T12:54:25.079Z,15.67
2022-09-18T12:59:01.523Z,15.40
2022-09-18T13:03:11.800Z,15.13
2022-09-18T13:07:18.842Z,14.96
2022-09-18T13:11:30.203Z,14.89
2022-09-18T13:15:39.849Z,14.81
2022-09-18T13:19:50.533Z,14.69
2022-09-18T13:23:55.345Z,14.64
2022-09-18T13:28:01.920Z,14.60
2022-09-18T13:32:05.261Z,14.60
2022-09-18T13:36:08.376Z,14.57
2022-09-18T13:40:28.466Z,14.49
2022-09-18T13:44:36.350Z,14.48
2022-09-18T13:48:46.545Z,14.45
2022-09-18T13:52:55.247Z,14.47
2022-09-18T13:57:18.883Z,14.53
2022-09-18T14:02:04.067Z,14.63
2022-09-18T14:06:46.446Z,14.68
2022-09-18T14:11:19.605Z,14.64
2022-09-18T14:15:26.495Z,14.64
2022-09-18T14:19:36.189Z,14.65
2022-09-18T14:24:31.099Z,14.73
2022-09-18T14:28:37.986Z,14.79
2022-09-18T14:32:43.266Z,14.82
2022-09-18T14:36:48.362Z,14.84
2022-09-18T14:40:56.687Z,14.83
2022-09-18T14:45:09.810Z,14.78
2022-09-18T14:49:26.978Z,14.75
2022-09-18T14:53:31.227Z,14.65
2022-09-18T14:57:46.167Z,14.60
2022-09-18T15:01:51.511Z,14.59
2022-09-18T15:06:07.574Z,14.60
2022-09-18T15:10:10.965Z,14.62
2022-09-18T15:14:21.725Z,14.59
2022-09-18T15:18:28.500Z,14.58
2022-09-18T15:22:32.146Z,14.60
2022-09-18T15:26:45.452Z,14.60
2022-09-18T15:30:49.321Z,14.58
2022-09-18T15:34:55.026Z,14.51
2022-09-18T15:39:00.239Z,14.47
2022-09-18T15:43:05.227Z,14.44
2022-09-18T15:47:30.992Z,14.42
2022-09-18T15:51:37.306Z,14.42
2022-09-18T15:55:54.033Z,14.41
2022-09-18T15:59:57.860Z,14.37
2022-09-18T16:04:09.197Z,14.37
2022-09-18T16:08:21.290Z,14.34
2022-09-18T16:12:43.207Z,14.29
2022-09-18T16:16:46.173Z,14.23
2022-09-18T16:21:02.726Z,14.23
2022-09-18T16:25:14.045Z,14.23
2022-09-18T16:29:20.950Z,14.18
2022-09-18T16:33:26.087Z,14.10
2022-09-18T16:37:30.147Z,14.02
2022-09-18T16:41:35.324Z,13.99
2022-09-18T16:45:38.896Z,13.98
2022-09-18T16:49:45.853Z,13.92
2022-09-18T16:53:49.028Z,13.87
2022-09-18T16:57:54.157Z,13.85
2022-09-18T17:02:04.197Z,13.81
2022-09-18T17:06:07.876Z,13.78
2022-09-18T17:10:12.385Z,13.76
2022-09-18T17:14:16.832Z,13.73
2022-09-18T17:18:19.898Z,13.74
2022-09-18T17:22:23.063Z,13.70
2022-09-18T17:26:28.492Z,13.67
2022-09-18T17:30:33.135Z,13.66
2022-09-18T17:34:36.194Z,13.64
2022-09-18T17:38:40.537Z,13.64
2022-09-18T17:42:44.433Z,13.62
2022-09-18T17:46:51.518Z,13.63
2022-09-18T17:50:58.683Z,13.62
2022-09-18T17:55:02.364Z,13.62
2022-09-18T17:59:07.780Z,13.60
2022-09-18T18:03:12.669Z,13.62
2022-09-18T18:07:16.278Z,13.61
2022-09-18T18:11:22.355Z,13.58
2022-09-18T18:15:25.780Z,13.60
2022-09-18T18:19:30.327Z,13.58
2022-09-18T18:23:33.871Z,13.53
2022-09-18T18:27:37.133Z,13.54
2022-09-18T18:31:42.043Z,13.53
2022-09-18T18:35:46.608Z,13.55
2022-09-18T18:39:49.571Z,13.55
2022-09-18T18:43:55.455Z,13.56
2022-09-18T18:47:58.710Z,13.58
2022-09-18T18:52:04.218Z,13.61
2022-09-18T18:56:09.348Z,13.62
2022-09-18T19:00:13.287Z,13.62
2022-09-18T19:04:19.846Z,13.59
2022-09-18T19:08:24.442Z,13.57
2022-09-18T19:12:27.777Z,13.58
2022-09-18T19:16:32.662Z,13.57
2022-09-18T19:20:38.828Z,13.59
2022-09-18T19:24:43.248Z,13.60
2022-09-18T19:28:50.813Z,13.61
2022-09-18T19:32:55.567Z,13.61
2022-09-18T19:36:59.397Z,13.62
2022-09-18T19:41:08.128Z,13.63
2022-09-18T19:45:15.920Z,13.64
2022-09-18T19:49:21.933Z,13.64
2022-09-18T19:53:25.177Z,13.68
2022-09-18T19:57:30.580Z,13.67
2022-09-18T20:01:33.578Z,13.62
2022-09-18T20:05:37.412Z,13.61
2022-09-18T20:09:40.938Z,13.62
2022-09-18T20:13:49.541Z,13.62
2022-09-18T20:17:52.696Z,13.59
2022-09-18T20:21:55.873Z,13.59
2022-09-18T20:25:58.920Z,13.60
2022-09-18T20:30:03.473Z,13.58
2022-09-18T20:34:06.665Z,13.55
2022-09-18T20:38:11.775Z,13.54
2022-09-18T20:42:14.932Z,13.54
2022-09-18T20:46:20.533Z,13.50
2022-09-18T20:50:27.746Z,13.51
2022-09-18T20:54:31.237Z,13.50
2022-09-18T20:58:35.430Z,13.47
2022-09-18T21:02:40.012Z,13.48
2022-09-18T21:06:43.186Z,13.47
2022-09-18T21:10:48.903Z,13.48
2022-09-18T21:14:51.899Z,13.45
2022-09-18T21:18:59.101Z,13.43
2022-09-18T21:23:19.478Z,13.40
2022-09-18T21:27:22.675Z,13.40
2022-09-18T21:31:26.483Z,13.40
2022-09-18T21:35:31.081Z,13.39
2022-09-18T21:39:34.077Z,13.40
2022-09-18T21:43:38.855Z,13.37
2022-09-18T21:47:41.966Z,13.38
2022-09-18T21:51:47.794Z,13.39
2022-09-18T21:55:50.936Z,13.40
2022-09-18T21:59:53.920Z,13.41
2022-09-18T22:03:59.390Z,13.40
2022-09-18T22:08:04.036Z,13.41
2022-09-18T22:12:08.783Z,13.41
2022-09-18T22:16:12.073Z,13.40
2022-09-18T22:20:15.146Z,13.40
2022-09-18T22:24:21.600Z,13.39
2022-09-18T22:28:26.568Z,13.36
2022-09-18T22:32:29.708Z,13.37
2022-09-18T22:36:33.211Z,13.37
2022-09-18T22:40:37.650Z,13.36
2022-09-18T22:44:40.663Z,13.37
2022-09-18T22:48:44.935Z,13.37
2022-09-18T22:52:48.088Z,13.37
2022-09-18T22:56:53.244Z,13.36
2022-09-18T23:00:56.264Z,13.33
2022-09-18T23:05:00.758Z,13.31
2022-09-18T23:09:04.705Z,13.31
2022-09-18T23:13:09.896Z,13.32
2022-09-18T23:17:12.907Z,13.30
2022-09-18T23:21:16.647Z,13.28
2022-09-18T23:25:19.617Z,13.26
2022-09-18T23:29:25.657Z,13.25
2022-09-18T23:33:28.639Z,13.21
2022-09-18T23:37:31.576Z,13.17
2022-09-18T23:41:35.599Z,13.17
2022-09-18T23:45:40.355Z,13.15
2022-09-18T23:49:43.315Z,13.17
2022-09-18T23:53:46.371Z,13.18
2022-09-18T23:57:49.310Z,13.17
